Time;durP1;ratioP1;P1;durP2;ratioP2;P2;SDS_P1;SDS_P2;PMS_P1;PMS_P2;Temp;Humidity;BMP_temperature;BMP_pressure;BME280_temperature;BME280_humidity;BME280_pressure;Samples;Min_cycle;Max_cycle;Signal;HPM_P1;HPM_P2
2022/03/10 00:00:20;;;;;;;15.33;9.30;;;;;;;1.06;100.00;100789.06;5015708;28;20672;-77
2022/03/10 00:02:47;;;;;;;19.17;9.20;;;;;;;0.93;100.00;100760.97;5030733;28;20203;-77
2022/03/10 00:05:18;;;;;;;21.13;10.53;;;;;;;0.93;100.00;100750.75;5015134;28;20201;-77
2022/03/10 00:07:46;;;;;;;18.77;9.97;;;;;;;1.15;100.00;100804.94;5029717;28;20224;-78
2022/03/10 00:10:12;;;;;;;23.73;11.37;;;;;;;1.10;100.00;100802.91;5014910;28;20192;-78
2022/03/10 00:12:39;;;;;;;21.43;11.10;;;;;;;0.93;100.00;100786.50;5021718;28;20196;-76
2022/03/10 00:15:09;;;;;;;24.90;12.43;;;;;;;0.90;100.00;100801.63;5015427;28;20204;-78
2022/03/10 00:17:36;;;;;;;30.97;14.47;;;;;;;0.83;100.00;100791.78;5029293;28;20235;-76
2022/03/10 00:20:04;;;;;;;20.80;11.17;;;;;;;0.83;100.00;100794.34;5028227;28;20220;-77
2022/03/10 00:22:30;;;;;;;19.70;12.20;;;;;;;0.87;100.00;100801.41;5019947;28;20219;-78
2022/03/10 00:24:57;;;;;;;24.47;10.80;;;;;;;0.88;100.00;100803.19;5033961;28;20200;-77
2022/03/10 00:27:24;;;;;;;22.43;12.40;;;;;;;0.66;100.00;100764.31;5034167;28;20238;-77
2022/03/10 00:29:51;;;;;;;30.30;13.30;;;;;;;0.90;100.00;100802.50;5031700;28;20193;-79
2022/03/10 00:32:19;;;;;;;31.17;12.97;;;;;;;0.95;100.00;100806.25;5016060;28;20195;-77
2022/03/10 00:34:46;;;;;;;32.43;14.27;;;;;;;0.93;100.00;100797.59;5033977;28;20196;-78
2022/03/10 00:37:12;;;;;;;32.90;14.93;;;;;;;0.86;100.00;100776.69;5032549;28;20203;-78
2022/03/10 00:39:39;;;;;;;31.67;14.77;;;;;;;0.96;100.00;100789.28;5030739;28;20192;-77
2022/03/10 00:42:06;;;;;;;33.90;14.43;;;;;;;0.97;100.00;100783.34;5032909;28;20204;-78
2022/03/10 00:44:34;;;;;;;31.73;14.27;;;;;;;0.89;100.00;100784.56;5018030;28;20193;-77
2022/03/10 00:47:01;;;;;;;23.93;11.20;;;;;;;0.88;100.00;100777.69;5030603;28;20266;-78
2022/03/10 00:49:29;;;;;;;21.77;12.03;;;;;;;0.82;100.00;100757.72;5033538;28;20805;-78
2022/03/10 00:51:56;;;;;;;27.67;13.27;;;;;;;0.95;100.00;100779.84;5029732;28;20200;-77
2022/03/10 00:54:22;;;;;;;26.50;11.80;;;;;;;0.99;100.00;100780.13;5031644;28;20200;-77
2022/03/10 00:56:49;;;;;;;24.40;12.10;;;;;;;0.77;100.00;100736.16;5019311;28;20188;-77
2022/03/10 00:59:16;;;;;;;31.60;11.53;;;;;;;0.95;100.00;100774.72;5023219;28;20693;-78
2022/03/10 01:01:43;;;;;;;21.00;10.70;;;;;;;1.00;100.00;100778.44;5014366;28;20196;-77
2022/03/10 01:04:09;;;;;;;24.10;9.80;;;;;;;0.98;100.00;100764.72;5033973;28;20204;-76
2022/03/10 01:06:39;;;;;;;22.00;10.43;;;;;;;1.02;100.00;100759.00;5032413;28;20220;-77
2022/03/10 01:09:05;;;;;;;28.93;13.30;;;;;;;1.10;100.00;100780.81;5024416;28;20204;-77
2022/03/10 01:11:33;;;;;;;29.40;12.60;;;;;;;1.04;100.00;100777.84;5013367;28;20585;-78
2022/03/10 01:14:00;;;;;;;104.60;32.50;;;;;;;1.09;100.00;100773.94;5031877;28;20200;-77
2022/03/10 01:16:27;;;;;;;71.10;23.90;;;;;;;0.65;100.00;100694.53;5015182;28;20196;-77
2022/03/10 01:18:54;;;;;;;45.47;20.03;;;;;;;1.03;100.00;100778.66;5026208;28;20196;-77
2022/03/10 01:21:21;;;;;;;30.50;14.60;;;;;;;1.06;100.00;100777.97;5026602;28;20200;-77
2022/03/10 01:23:49;;;;;;;24.93;10.87;;;;;;;1.13;100.00;100783.56;5029091;28;20203;-77
2022/03/10 01:26:16;;;;;;;25.40;11.37;;;;;;;1.04;100.00;100782.97;5024206;28;20220;-77
2022/03/10 01:28:42;;;;;;;31.57;14.20;;;;;;;1.06;100.00;100776.31;5018305;28;20690;-77
2022/03/10 01:31:09;;;;;;;19.97;11.13;;;;;;;1.10;100.00;100785.91;5017542;28;20581;-77
2022/03/10 01:33:36;;;;;;;25.77;10.90;;;;;;;1.05;100.00;100771.97;5017915;28;20197;-77
2022/03/10 01:36:03;;;;;;;19.03;10.70;;;;;;;1.03;100.00;100793.97;5014447;28;20204;-77
2022/03/10 01:38:30;;;;;;;38.90;20.07;;;;;;;0.81;100.00;100783.16;5020803;28;20203;-77
2022/03/10 01:40:58;;;;;;;16.00;9.83;;;;;;;0.80;100.00;100787.38;5031143;28;20196;-76
2022/03/10 01:43:25;;;;;;;17.27;10.40;;;;;;;0.80;100.00;100778.84;5019757;28;20200;-77
2022/03/10 01:45:52;;;;;;;28.13;15.80;;;;;;;0.95;100.00;100779.84;5028463;28;20224;-77
2022/03/10 01:48:19;;;;;;;14.47;10.43;;;;;;;0.93;100.00;100783.94;5012610;28;20746;-78
2022/03/10 01:50:46;;;;;;;15.53;9.23;;;;;;;0.99;100.00;100777.59;5014082;28;20189;-76
2022/03/10 01:53:13;;;;;;;14.00;8.40;;;;;;;1.04;100.00;100784.63;5023393;28;20200;-76
2022/03/10 01:55:40;;;;;;;14.40;9.00;;;;;;;0.92;100.00;100761.78;5023453;28;20196;-77
2022/03/10 01:58:09;;;;;;;13.17;7.60;;;;;;;0.77;100.00;100760.78;5030366;28;20200;-77
2022/03/10 02:00:36;;;;;;;15.40;7.80;;;;;;;0.90;100.00;100781.19;5032671;28;20193;-75
2022/03/10 02:03:03;;;;;;;14.53;7.93;;;;;;;0.90;100.00;100793.97;5023677;28;20197;-78
2022/03/10 02:05:31;;;;;;;16.43;8.63;;;;;;;0.87;100.00;100781.00;5032004;28;20701;-78
2022/03/10 02:10:42;;;;;;;13.77;7.87;;;;;;;0.79;100.00;100777.94;5019716;28;20274;-77
2022/03/10 02:13:10;;;;;;;13.93;8.80;;;;;;;0.89;100.00;100770.09;5022300;28;20679;-76
2022/03/10 02:18:21;;;;;;;13.50;9.63;;;;;;;0.68;100.00;100758.50;5023139;28;20207;-78
2022/03/10 02:20:48;;;;;;;18.50;11.23;;;;;;;0.77;100.00;100783.75;5013685;28;20189;-77
2022/03/10 02:23:17;;;;;;;20.40;11.53;;;;;;;0.66;100.00;100764.31;5013701;28;20193;-77
2022/03/10 02:25:44;;;;;;;17.20;11.87;;;;;;;0.69;100.00;100770.50;5012247;28;20196;-78
2022/03/10 02:28:11;;;;;;;19.07;12.47;;;;;;;0.81;100.00;100784.06;5012155;28;20706;-76
2022/03/10 02:30:38;;;;;;;19.27;10.97;;;;;;;0.82;100.00;100792.59;5020056;28;20204;-78
2022/03/10 02:33:05;;;;;;;23.23;11.93;;;;;;;0.76;100.00;100779.41;5032543;28;20199;-76
2022/03/10 02:35:32;;;;;;;17.00;9.80;;;;;;;0.75;100.00;100770.03;5031932;28;20586;-75
2022/03/10 02:37:59;;;;;;;16.60;9.43;;;;;;;0.86;100.00;100784.31;5028992;28;20204;-78
2022/03/10 02:40:27;;;;;;;17.27;9.10;;;;;;;0.92;100.00;100784.75;5021755;28;20193;-76
2022/03/10 02:42:55;;;;;;;13.50;8.73;;;;;;;0.58;100.00;100742.50;5012074;28;20220;-79
2022/03/10 02:45:23;;;;;;;18.97;10.20;;;;;;;0.84;100.00;100788.47;5015550;28;20644;-77
2022/03/10 02:47:50;;;;;;;11.83;8.10;;;;;;;0.82;100.00;100802.81;5015420;28;20676;-78
2022/03/10 02:50:17;;;;;;;13.40;8.13;;;;;;;0.32;100.00;100736.59;5021851;28;20188;-78
2022/03/10 02:52:45;;;;;;;13.23;8.47;;;;;;;0.48;100.00;100780.19;5012848;28;20200;-77
2022/03/10 02:55:12;;;;;;;14.77;8.43;;;;;;;0.35;100.00;100759.78;5012375;28;20275;-79
2022/03/10 02:57:41;;;;;;;14.27;8.57;;;;;;;0.67;100.00;100807.81;5016986;28;20680;-76
2022/03/10 03:00:09;;;;;;;14.17;8.83;;;;;;;0.67;100.00;100815.47;5025005;28;20189;-76
2022/03/10 03:02:37;;;;;;;18.50;9.33;;;;;;;0.56;100.00;100792.56;5012033;28;20693;-77
2022/03/10 03:05:06;;;;;;;21.73;9.67;;;;;;;0.60;100.00;100804.75;5011656;28;20610;-78
2022/03/10 03:07:33;;;;;;;17.67;8.93;;;;;;;0.34;100.00;100778.41;5016124;28;20224;-77
2022/03/10 03:10:00;;;;;;;12.70;8.37;;;;;;;0.26;100.00;100789.75;5027220;28;20550;-76
2022/03/10 03:12:27;;;;;;;14.33;8.17;;;;;;;0.08;100.00;100780.88;5015709;28;20231;-77
2022/03/10 03:14:55;;;;;;;14.50;7.73;;;;;;;0.15;100.00;100806.00;5016188;28;20283;-76
2022/03/10 03:17:22;;;;;;;16.13;8.53;;;;;;;-0.16;100.00;100809.78;5031918;28;20200;-77
2022/03/10 03:19:49;;;;;;;12.83;8.30;;;;;;;-0.30;100.00;100791.00;5019929;28;20732;-76
2022/03/10 03:22:15;;;;;;;28.93;13.83;;;;;;;-0.21;100.00;100806.03;5034057;28;20228;-76
2022/03/10 03:24:44;;;;;;;19.60;9.63;;;;;;;-0.21;100.00;100800.94;5035743;28;20196;-77
2022/03/10 03:27:11;;;;;;;18.17;10.67;;;;;;;-0.33;100.00;100790.81;5019501;28;20804;-77
2022/03/10 03:29:38;;;;;;;19.03;10.80;;;;;;;-0.62;100.00;100755.69;5033887;28;20223;-76
2022/03/10 03:32:07;;;;;;;17.77;10.07;;;;;;;-0.23;100.00;100810.16;5018537;28;20193;-79
2022/03/10 03:34:34;;;;;;;18.63;8.47;;;;;;;-0.27;100.00;100818.34;5020735;28;20200;-78
2022/03/10 03:37:01;;;;;;;16.30;8.40;;;;;;;-0.33;100.00;100830.66;5032940;28;20192;-76
2022/03/10 03:39:28;;;;;;;18.00;9.10;;;;;;;-0.56;100.00;100786.66;5034612;28;20223;-77
2022/03/10 03:41:54;;;;;;;9.27;5.40;;;;;;;-0.38;100.00;100839.63;5029752;28;20679;-76
2022/03/10 03:44:21;;;;;;;11.67;7.73;;;;;;;-0.41;100.00;100811.41;5016413;28;20216;-76
2022/03/10 03:46:48;;;;;;;17.50;8.73;;;;;;;-0.22;100.00;100835.75;5023096;28;20212;-77
2022/03/10 03:49:16;;;;;;;18.50;9.57;;;;;;;-0.45;100.00;100796.69;5021789;28;20188;-77
2022/03/10 03:51:43;;;;;;;16.17;9.13;;;;;;;-0.39;100.00;100835.34;5017970;28;20205;-77
2022/03/10 03:54:10;;;;;;;18.10;8.33;;;;;;;-0.33;100.00;100816.28;5014937;28;20192;-77
2022/03/10 03:56:37;;;;;;;25.00;11.87;;;;;;;-0.12;100.00;100827.94;5018986;28;20203;-77
2022/03/10 03:59:04;;;;;;;18.40;10.40;;;;;;;0.03;100.00;100829.78;5029830;28;20203;-77
2022/03/10 04:01:31;;;;;;;12.37;9.00;;;;;;;-0.53;100.00;100730.81;5022166;28;20224;-77
2022/03/10 04:03:58;;;;;;;26.47;11.30;;;;;;;0.11;100.00;100829.50;5026111;28;20201;-76
2022/03/10 04:06:26;;;;;;;16.77;8.10;;;;;;;0.08;100.00;100836.06;5021394;28;20201;-72
2022/03/10 04:08:53;;;;;;;16.27;9.10;;;;;;;-0.25;100.00;100798.97;5033301;28;20227;-76
2022/03/10 04:11:20;;;;;;;18.70;8.10;;;;;;;-0.16;100.00;100832.72;5032820;28;20203;-76
2022/03/10 04:13:46;;;;;;;16.10;8.63;;;;;;;-0.18;100.00;100829.19;5032434;28;20215;-77
2022/03/10 04:16:13;;;;;;;13.00;7.47;;;;;;;0.07;100.00;100850.50;5013870;28;20193;-75
2022/03/10 04:18:40;;;;;;;19.63;10.70;;;;;;;0.72;100.00;100833.59;5013897;28;20454;-77
2022/03/10 04:21:07;;;;;;;12.10;8.00;;;;;;;0.65;100.00;100845.06;5034344;28;20199;-77
2022/03/10 04:23:35;;;;;;;14.00;8.30;;;;;;;0.61;100.00;100857.53;5021665;28;20197;-78
2022/03/10 04:26:02;;;;;;;13.80;7.77;;;;;;;0.40;100.00;100856.97;5014631;28;20196;-77
2022/03/10 04:28:29;;;;;;;13.70;7.77;;;;;;;0.24;100.00;100862.72;5014631;28;20216;-79
2022/03/10 04:30:56;;;;;;;9.60;6.87;;;;;;;-0.36;100.00;100861.03;5015527;28;20197;-78
2022/03/10 04:33:23;;;;;;;11.87;7.93;;;;;;;-0.09;100.00;100860.41;5024985;28;20185;-77
2022/03/10 04:35:51;;;;;;;15.63;8.03;;;;;;;-0.04;100.00;100867.56;5016249;28;20201;-76
2022/03/10 04:38:18;;;;;;;11.20;7.07;;;;;;;-0.11;100.00;100861.97;5019318;28;20737;-77
2022/03/10 04:40:47;;;;;;;13.93;7.60;;;;;;;-0.21;100.00;100829.84;5030068;28;20199;-77
2022/03/10 04:43:13;;;;;;;11.83;6.37;;;;;;;-0.11;100.00;100870.47;5019929;28;20205;-77
2022/03/10 04:45:40;;;;;;;9.73;5.77;;;;;;;-0.36;100.00;100835.56;5024387;28;20586;-76
2022/03/10 04:48:07;;;;;;;12.07;7.27;;;;;;;-0.13;100.00;100869.50;5029122;28;20235;-77
2022/03/10 04:50:35;;;;;;;11.30;7.03;;;;;;;-0.11;100.00;100869.63;5019440;28;20196;-75
2022/03/10 04:53:02;;;;;;;8.47;6.47;;;;;;;-0.25;100.00;100876.25;5012528;28;20252;-75
2022/03/10 04:55:29;;;;;;;10.13;6.27;;;;;;;-0.11;100.00;100874.72;5014316;28;20748;-76
2022/03/10 04:57:58;;;;;;;19.40;8.67;;;;;;;-0.22;100.00;100871.41;5023710;28;20247;-74
2022/03/10 05:00:24;;;;;;;14.77;8.07;;;;;;;-0.58;100.00;100808.59;5017234;28;20189;-74
2022/03/10 05:02:51;;;;;;;19.17;8.97;;;;;;;-0.34;100.00;100874.75;5029644;28;20200;-74
2022/03/10 05:05:18;;;;;;;16.00;6.77;;;;;;;-0.34;100.00;100882.38;5019523;28;20201;-75
2022/03/10 05:07:45;;;;;;;6.40;4.37;;;;;;;-0.32;100.00;100883.41;5013715;28;20255;-75
2022/03/10 05:10:13;;;;;;;4.90;3.00;;;;;;;-0.38;100.00;100900.78;5021284;28;20200;-77
2022/03/10 05:12:48;;;;;;;5.37;3.13;;;;;;;-0.56;100.00;100868.13;5032931;28;20265;-75
2022/03/10 05:15:19;;;;;;;13.47;5.40;;;;;;;-0.25;100.00;100895.78;5031312;28;20192;-77
2022/03/10 05:17:46;;;;;;;8.13;4.87;;;;;;;-0.27;100.00;100908.41;5013995;28;20270;-75
2022/03/10 05:20:13;;;;;;;7.57;3.47;;;;;;;-0.26;100.00;100904.19;5022007;28;20199;-76
2022/03/10 05:22:45;;;;;;;6.77;4.40;;;;;;;-0.21;100.00;100913.03;5024639;28;20278;-75
2022/03/10 05:25:12;;;;;;;8.97;5.57;;;;;;;-0.11;100.00;100915.47;5032301;28;20639;-76
2022/03/10 05:27:39;;;;;;;7.43;5.20;;;;;;;-0.06;100.00;100904.81;5013904;28;20220;-78
2022/03/10 05:30:07;;;;;;;7.30;4.27;;;;;;;0.05;100.00;100925.97;5028252;28;20663;-76
2022/03/10 05:32:35;;;;;;;7.00;4.70;;;;;;;-0.44;100.00;100868.13;5024639;28;20200;-76
2022/03/10 05:35:03;;;;;;;5.23;4.43;;;;;;;-0.07;100.00;100935.28;5032446;28;20199;-78
2022/03/10 05:37:30;;;;;;;6.53;5.27;;;;;;;-0.16;100.00;100947.38;5013586;28;20192;-76
2022/03/10 05:39:57;;;;;;;7.63;4.73;;;;;;;-0.15;100.00;100951.72;5012624;28;20200;-75
2022/03/10 05:42:24;;;;;;;5.83;4.43;;;;;;;-0.58;100.00;100905.34;5024774;28;20192;-78
2022/03/10 05:44:51;;;;;;;6.63;5.07;;;;;;;-0.27;100.00;100930.44;5013396;28;20201;-77
2022/03/10 05:47:18;;;;;;;5.87;4.97;;;;;;;-0.08;100.00;100951.38;5016974;28;20261;-75
2022/03/10 05:49:46;;;;;;;7.33;5.70;;;;;;;-0.12;100.00;100903.50;5032803;28;20246;-77
2022/03/10 05:52:13;;;;;;;7.00;5.10;;;;;;;0.18;100.00;100948.97;5025998;28;20193;-76
2022/03/10 05:54:40;;;;;;;7.50;4.97;;;;;;;0.09;100.00;100960.19;5012780;28;20667;-75
2022/03/10 05:57:07;;;;;;;7.53;5.27;;;;;;;-0.21;100.00;100925.78;5013729;28;20230;-76
2022/03/10 05:59:33;;;;;;;4.47;3.63;;;;;;;-0.22;100.00;100962.25;5012840;28;20637;-75
2022/03/10 06:02:00;;;;;;;7.27;4.27;;;;;;;-0.27;100.00;100968.66;5014273;28;20671;-76
2022/03/10 06:04:27;;;;;;;5.57;4.57;;;;;;;-0.36;100.00;100965.47;5012796;28;20193;-77
2022/03/10 06:06:55;;;;;;;3.53;3.23;;;;;;;-0.43;100.00;100965.81;5012855;28;20197;-76
2022/03/10 06:09:22;;;;;;;5.83;4.13;;;;;;;-0.38;100.00;100969.56;5012694;28;20785;-76
2022/03/10 06:11:49;;;;;;;5.37;4.60;;;;;;;-0.42;100.00;100973.53;5024445;28;20787;-75
2022/03/10 06:14:17;;;;;;;4.07;2.93;;;;;;;-0.44;100.00;100964.91;5012312;28;20682;-75
2022/03/10 06:16:44;;;;;;;5.63;4.90;;;;;;;-0.31;100.00;100972.66;5013228;28;20201;-73
2022/03/10 06:19:11;;;;;;;3.57;3.27;;;;;;;-0.52;100.00;100915.97;5016102;28;20200;-73
2022/03/10 06:21:38;;;;;;;5.77;5.17;;;;;;;0.04;100.00;100972.59;5017756;28;20201;-74
2022/03/10 06:24:07;;;;;;;6.43;5.17;;;;;;;0.01;100.00;100959.66;5012481;28;20292;-74
2022/03/10 06:26:36;;;;;;;10.20;7.33;;;;;;;0.33;100.00;100980.66;5012135;28;20196;-76
2022/03/10 06:29:03;;;;;;;9.60;6.30;;;;;;;0.52;100.00;100985.34;5012397;28;20228;-74
2022/03/10 06:31:30;;;;;;;10.70;6.20;;;;;;;0.71;100.00;100979.84;5012115;28;20675;-74
2022/03/10 06:33:58;;;;;;;6.60;5.33;;;;;;;1.18;100.00;100991.56;5025615;28;20211;-75
2022/03/10 06:36:25;;;;;;;9.37;6.63;;;;;;;1.44;100.00;100975.41;5031697;28;20296;-75
2022/03/10 06:38:52;;;;;;;11.90;7.37;;;;;;;1.94;100.00;100994.91;5022951;28;20219;-75
2022/03/10 06:41:20;;;;;;;40.90;14.50;;;;;;;2.23;100.00;101003.50;5011833;28;20200;-74
2022/03/10 06:43:47;;;;;;;10.83;6.83;;;;;;;2.11;100.00;101000.16;5024060;28;20188;-73
2022/03/10 06:46:14;;;;;;;25.03;9.07;;;;;;;2.38;100.00;101010.47;5031157;28;20698;-74
2022/03/10 06:48:41;;;;;;;20.03;10.27;;;;;;;2.36;100.00;101006.94;5031173;28;20231;-73
2022/03/10 06:51:08;;;;;;;39.00;16.67;;;;;;;2.44;100.00;100981.81;5031990;28;20196;-73
2022/03/10 06:53:35;;;;;;;40.40;17.57;;;;;;;2.62;100.00;101021.34;5031537;28;20587;-76
2022/03/10 06:56:02;;;;;;;9.53;6.17;;;;;;;2.48;100.00;101017.94;5031821;28;20200;-75
2022/03/10 06:58:30;;;;;;;7.93;5.93;;;;;;;2.86;100.00;101021.94;5031901;28;20576;-72
2022/03/10 07:00:57;;;;;;;10.03;6.23;;;;;;;3.14;100.00;101020.22;5031575;28;20197;-73
2022/03/10 07:03:24;;;;;;;10.57;6.67;;;;;;;3.12;100.00;101026.06;5031914;28;20609;-72
2022/03/10 07:05:51;;;;;;;5.43;3.87;;;;;;;2.85;100.00;101017.63;5031743;28;20651;-74
2022/03/10 07:08:18;;;;;;;8.30;5.43;;;;;;;2.56;100.00;101007.28;5031643;28;20231;-75
2022/03/10 07:10:45;;;;;;;12.23;7.00;;;;;;;3.05;100.00;101022.25;5030549;28;20681;-75
2022/03/10 07:13:11;;;;;;;9.50;6.77;;;;;;;3.21;100.00;101022.34;5031641;28;20667;-75
2022/03/10 07:15:39;;;;;;;8.50;6.40;;;;;;;3.28;100.00;101028.75;5031678;28;20203;-75
2022/03/10 07:18:06;;;;;;;12.77;7.90;;;;;;;3.36;100.00;101028.38;5031387;28;20199;-73
2022/03/10 07:20:33;;;;;;;31.60;17.47;;;;;;;3.46;100.00;101032.41;5031513;28;20200;-74
2022/03/10 07:23:00;;;;;;;10.87;7.17;;;;;;;3.60;100.00;101028.94;5031282;28;20732;-74
2022/03/10 07:25:27;;;;;;;7.47;5.57;;;;;;;4.02;100.00;101034.75;5031283;28;20203;-73
2022/03/10 07:27:54;;;;;;;7.67;5.10;;;;;;;3.95;100.00;101033.53;5031950;28;20200;-74
2022/03/10 07:30:21;;;;;;;7.93;6.20;;;;;;;4.02;100.00;101001.38;5031300;28;20196;-75
2022/03/10 07:32:49;;;;;;;8.03;5.47;;;;;;;3.95;100.00;101044.66;5031653;28;20192;-76
2022/03/10 07:35:16;;;;;;;8.43;4.63;;;;;;;3.70;100.00;101044.06;5031309;28;20262;-77
2022/03/10 07:37:46;;;;;;;7.40;5.27;;;;;;;3.91;100.00;101032.47;5031292;28;20593;-75
2022/03/10 07:40:14;;;;;;;8.83;5.60;;;;;;;4.41;100.00;101037.84;5030478;28;20270;-73
2022/03/10 07:42:40;;;;;;;11.47;6.60;;;;;;;4.02;100.00;100980.88;5030907;28;20231;-73
2022/03/10 07:45:09;;;;;;;11.17;6.67;;;;;;;4.30;100.00;101033.78;5031471;28;20203;-74
2022/03/10 07:47:36;;;;;;;7.60;6.40;;;;;;;4.11;100.00;101051.53;5030898;28;20805;-73
2022/03/10 07:50:06;;;;;;;10.20;5.13;;;;;;;3.63;100.00;101033.38;5031076;28;20235;-73
2022/03/10 07:52:33;;;;;;;6.70;5.00;;;;;;;3.34;100.00;101032.56;5033126;28;20192;-73
2022/03/10 07:55:00;;;;;;;5.57;4.83;;;;;;;3.45;100.00;101039.19;5034844;28;20203;-73
2022/03/10 07:57:27;;;;;;;11.67;5.70;;;;;;;3.57;100.00;101045.84;5034623;28;20195;-75
2022/03/10 07:59:54;;;;;;;6.73;5.37;;;;;;;3.82;100.00;101051.56;5034638;28;20199;-76
2022/03/10 08:02:21;;;;;;;8.40;6.00;;;;;;;3.64;100.00;101045.41;5035018;28;20242;-76
2022/03/10 08:04:48;;;;;;;5.83;4.80;;;;;;;3.37;100.00;101037.88;5034731;28;20192;-74
2022/03/10 08:07:16;;;;;;;6.30;4.13;;;;;;;3.25;100.00;101042.25;5034804;28;20192;-75
2022/03/10 08:09:43;;;;;;;10.00;5.97;;;;;;;3.18;97.63;101039.22;5033917;28;20224;-75
2022/03/10 08:12:10;;;;;;;4.33;3.67;;;;;;;2.33;99.40;101047.69;5034456;28;20634;-76
2022/03/10 08:14:37;;;;;;;10.80;6.37;;;;;;;2.28;100.00;101048.19;5034748;28;20197;-74
2022/03/10 08:17:04;;;;;;;8.10;6.20;;;;;;;2.32;100.00;101029.69;5034695;28;20203;-74
2022/03/10 08:19:30;;;;;;;23.60;4.03;;;;;;;1.83;99.44;101033.34;5034490;28;20192;-75
2022/03/10 08:21:58;;;;;;;17.17;6.37;;;;;;;1.67;100.00;101013.59;5034137;28;20239;-75
2022/03/10 08:24:28;;;;;;;4.10;3.70;;;;;;;1.79;100.00;101050.16;5034352;28;20223;-74
2022/03/10 08:26:55;;;;;;;12.07;6.40;;;;;;;1.97;100.00;101045.34;5034118;28;20697;-74
2022/03/10 08:29:23;;;;;;;5.33;4.10;;;;;;;2.27;99.04;101054.97;5034308;28;20224;-74
2022/03/10 08:31:50;;;;;;;12.20;5.93;;;;;;;1.90;100.00;101049.19;5034010;28;20279;-74
2022/03/10 08:34:17;;;;;;;10.57;7.40;;;;;;;2.43;100.00;101049.13;5033990;28;20203;-74
2022/03/10 08:36:44;;;;;;;7.80;4.57;;;;;;;2.74;100.00;101042.59;5033668;28;20258;-74
2022/03/10 08:39:10;;;;;;;7.40;5.67;;;;;;;2.27;100.00;101047.31;5032701;28;20204;-74
2022/03/10 08:41:39;;;;;;;9.97;7.53;;;;;;;2.44;100.00;101058.59;5034184;28;20247;-74
2022/03/10 08:44:05;;;;;;;6.07;5.03;;;;;;;2.81;99.40;101054.09;5033920;28;20677;-74
2022/03/10 08:46:33;;;;;;;7.33;5.33;;;;;;;2.78;98.48;101046.22;5034127;28;20274;-74
2022/03/10 08:49:00;;;;;;;8.97;5.60;;;;;;;2.94;91.60;101023.28;5033703;28;20297;-74
2022/03/10 08:51:27;;;;;;;6.47;4.87;;;;;;;2.98;88.58;101062.00;5033751;28;20283;-74
2022/03/10 08:53:54;;;;;;;11.57;7.13;;;;;;;2.78;90.59;101057.31;5033633;28;20193;-75
2022/03/10 08:56:21;;;;;;;5.83;3.43;;;;;;;2.36;94.66;101060.66;5033657;28;20689;-74
2022/03/10 08:58:49;;;;;;;7.00;5.70;;;;;;;2.48;94.87;101065.69;5033817;28;20204;-75
2022/03/10 09:01:16;;;;;;;12.57;4.47;;;;;;;2.30;95.54;101047.50;5033895;28;20616;-75
2022/03/10 09:03:43;;;;;;;6.50;5.37;;;;;;;2.52;95.28;101039.50;5029640;28;20675;-74
2022/03/10 09:06:12;;;;;;;6.60;4.20;;;;;;;2.63;92.70;101058.06;5013557;28;20204;-74
2022/03/10 09:08:39;;;;;;;6.13;4.70;;;;;;;2.46;90.94;101001.59;5013788;28;20201;-74
2022/03/10 09:11:06;;;;;;;9.63;5.10;;;;;;;3.28;90.74;101042.44;5013064;28;20200;-75
2022/03/10 09:13:33;;;;;;;3.83;3.53;;;;;;;3.27;83.00;101063.75;5013803;28;20220;-75
2022/03/10 09:16:02;;;;;;;3.47;3.10;;;;;;;2.89;79.90;101007.63;5013556;28;20193;-74
2022/03/10 09:18:29;;;;;;;15.93;5.67;;;;;;;3.05;78.75;101040.19;5013204;28;20203;-74
2022/03/10 09:20:55;;;;;;;7.27;5.10;;;;;;;3.65;74.81;101067.66;5013188;28;20208;-76
2022/03/10 09:23:22;;;;;;;7.27;5.10;;;;;;;3.69;75.31;101069.59;5013618;28;20196;-75
2022/03/10 09:25:49;;;;;;;7.93;5.07;;;;;;;3.36;77.11;101055.69;5013196;28;20197;-74
2022/03/10 09:28:16;;;;;;;7.30;4.70;;;;;;;3.60;82.32;101051.13;5013762;28;20574;-74
2022/03/10 09:30:43;;;;;;;5.23;3.13;;;;;;;3.13;82.84;101056.91;5013025;28;20231;-74
2022/03/10 09:33:11;;;;;;;3.80;2.97;;;;;;;3.35;86.08;101062.50;5013108;28;20663;-75
2022/03/10 09:35:38;;;;;;;5.20;4.43;;;;;;;3.05;79.66;100982.94;5013200;28;20712;-74
2022/03/10 09:38:05;;;;;;;4.87;3.80;;;;;;;3.41;78.71;101027.00;5013631;28;20208;-77
2022/03/10 09:40:32;;;;;;;6.50;3.53;;;;;;;3.70;80.00;101067.16;5012448;28;20199;-74
2022/03/10 09:42:59;;;;;;;8.67;4.53;;;;;;;3.07;82.32;101064.22;5013125;28;20220;-74
2022/03/10 09:45:29;;;;;;;6.53;5.20;;;;;;;3.18;85.89;101047.81;5013204;28;20221;-74
2022/03/10 09:47:55;;;;;;;12.93;6.20;;;;;;;3.66;97.15;101043.78;5012621;28;20718;-75
2022/03/10 09:50:24;;;;;;;12.03;6.97;;;;;;;3.33;83.90;101058.09;5013148;28;20243;-74
2022/03/10 09:52:50;;;;;;;11.30;5.50;;;;;;;3.68;81.98;101057.56;5013032;28;20197;-74
2022/03/10 09:55:19;;;;;;;7.90;5.87;;;;;;;3.98;78.30;101052.53;5013155;28;20201;-74
2022/03/10 09:57:47;;;;;;;7.53;4.17;;;;;;;3.71;71.74;101043.25;5012660;28;20686;-75
2022/03/10 10:00:16;;;;;;;11.00;5.43;;;;;;;3.62;76.24;101077.75;5012632;28;20217;-74
2022/03/10 10:02:44;;;;;;;9.03;5.47;;;;;;;3.61;73.18;101070.84;5012701;28;20196;-75
2022/03/10 10:05:22;;;;;;;5.20;3.60;;;;;;;3.54;75.15;101063.59;5013656;28;20192;-74
2022/03/10 10:08:08;;;;;;;6.63;4.80;;;;;;;3.67;66.94;101054.16;5012345;28;20630;-74
2022/03/10 10:10:36;;;;;;;6.90;4.30;;;;;;;3.27;77.73;101063.75;5011697;28;20725;-74
2022/03/10 10:13:06;;;;;;;4.70;4.23;;;;;;;2.80;76.35;101016.44;5012326;28;20201;-74
2022/03/10 10:15:42;;;;;;;7.17;4.23;;;;;;;3.22;75.92;101060.00;5012034;28;20236;-75
2022/03/10 10:18:15;;;;;;;11.77;6.10;;;;;;;3.27;74.38;101058.63;5012674;28;20192;-74
2022/03/10 10:20:47;;;;;;;76.00;28.37;;;;;;;3.27;76.87;101061.19;5012038;28;20208;-75
2022/03/10 10:23:20;;;;;;;5.90;4.33;;;;;;;3.36;75.76;101054.03;5012321;28;20306;-74
2022/03/10 10:25:52;;;;;;;6.90;5.57;;;;;;;3.47;76.80;101062.34;5012526;28;20193;-73
2022/03/10 10:28:28;;;;;;;9.90;4.80;;;;;;;3.74;67.04;101065.63;5012313;28;20197;-74
2022/03/10 10:30:57;;;;;;;6.20;4.80;;;;;;;4.24;70.71;101058.25;5011990;28;20278;-75
2022/03/10 10:33:24;;;;;;;6.77;4.10;;;;;;;4.16;60.45;101018.44;5012218;28;20201;-76
2022/03/10 10:35:51;;;;;;;4.70;3.53;;;;;;;4.29;59.02;101061.94;5012055;28;20654;-75
2022/03/10 10:38:32;;;;;;;109.50;36.13;;;;;;;3.78;63.27;101049.63;5012027;28;20204;-74
2022/03/10 10:41:16;;;;;;;4.57;3.43;;;;;;;3.72;62.33;101049.25;5011131;28;20314;-75
2022/03/10 10:43:46;;;;;;;8.33;4.53;;;;;;;3.50;61.48;101050.59;5011815;28;20643;-74
2022/03/10 10:46:31;;;;;;;4.33;3.40;;;;;;;3.66;56.03;101051.47;5012116;28;20216;-74
2022/03/10 10:49:00;;;;;;;5.00;3.47;;;;;;;3.76;54.64;101040.94;5011770;28;20201;-74
2022/03/10 10:51:35;;;;;;;8.03;4.17;;;;;;;3.95;56.09;101043.78;5011836;28;20201;-74
2022/03/10 10:54:05;;;;;;;4.30;3.37;;;;;;;4.01;54.79;101033.84;5012293;28;20192;-75
2022/03/10 10:56:33;;;;;;;2.63;2.40;;;;;;;3.76;52.14;101046.09;5012166;28;20281;-73
2022/03/10 10:59:02;;;;;;;3.83;3.13;;;;;;;3.79;53.94;101041.13;5011706;28;20722;-73
2022/03/10 11:01:35;;;;;;;14.83;7.00;;;;;;;3.77;56.86;101046.19;5011916;28;20581;-76
2022/03/10 11:04:04;;;;;;;8.37;4.33;;;;;;;4.03;56.90;101028.81;5012036;28;20582;-75
2022/03/10 11:06:32;;;;;;;3.03;2.83;;;;;;;3.83;59.38;101037.94;5012125;28;20575;-75
2022/03/10 11:08:59;;;;;;;5.23;3.60;;;;;;;3.91;56.82;101023.88;5011305;28;20197;-75
2022/03/10 11:11:27;;;;;;;7.37;4.30;;;;;;;3.82;56.49;101033.59;5011747;28;20201;-75
2022/03/10 11:13:54;;;;;;;6.83;4.40;;;;;;;4.13;59.29;101019.16;5012065;28;20207;-75
2022/03/10 11:16:21;;;;;;;3.37;2.53;;;;;;;4.01;58.75;101033.84;5012609;28;20201;-75
2022/03/10 11:18:50;;;;;;;5.73;4.17;;;;;;;3.91;58.26;101041.84;5012080;28;20193;-75
2022/03/10 11:21:42;;;;;;;4.87;2.33;;;;;;;3.10;72.54;101054.16;5011629;28;20235;-75
2022/03/10 11:24:39;;;;;;;5.70;3.20;;;;;;;2.63;87.64;101056.41;5011590;28;20196;-75
2022/03/10 11:27:13;;;;;;;6.13;2.47;;;;;;;2.10;100.00;101072.59;5012228;28;20240;-73